sensor_id;sensor_type;location;lat;lon;timestamp;P1;durP1;ratioP1;P2;durP2;ratioP2
13660;SDS011;6903;49.480;11.102;2022-09-02T00:01:43;3.73;;;2.00;;
13660;SDS011;6903;49.480;11.102;2022-09-02T00:04:21;5.50;;;2.03;;
13660;SDS011;6903;49.480;11.102;2022-09-02T00:06:49;2.33;;;1.90;;
13660;SDS011;6903;49.480;11.102;2022-09-02T00:09:17;2.20;;;2.00;;
13660;SDS011;6903;49.480;11.102;2022-09-02T00:11:45;3.27;;;2.13;;
13660;SDS011;6903;49.480;11.102;2022-09-02T00:14:31;3.27;;;2.00;;
13660;SDS011;6903;49.480;11.102;2022-09-02T00:16:59;3.70;;;2.03;;
13660;SDS011;6903;49.480;11.102;2022-09-02T00:19:25;2.30;;;2.10;;
13660;SDS011;6903;49.480;11.102;2022-09-02T00:21:52;2.23;;;1.80;;
13660;SDS011;6903;49.480;11.102;2022-09-02T00:24:19;4.77;;;2.70;;
13660;SDS011;6903;49.480;11.102;2022-09-02T00:26:45;3.93;;;2.40;;
13660;SDS011;6903;49.480;11.102;2022-09-02T00:29:11;3.83;;;2.57;;
13660;SDS011;6903;49.480;11.102;2022-09-02T00:31:38;3.70;;;2.30;;
13660;SDS011;6903;49.480;11.102;2022-09-02T00:34:04;2.93;;;2.13;;
13660;SDS011;6903;49.480;11.102;2022-09-02T00:36:31;2.30;;;2.10;;
13660;SDS011;6903;49.480;11.102;2022-09-02T00:38:57;3.97;;;2.43;;
13660;SDS011;6903;49.480;11.102;2022-09-02T00:41:23;3.13;;;2.10;;
13660;SDS011;6903;49.480;11.102;2022-09-02T00:43:52;2.23;;;1.83;;
13660;SDS011;6903;49.480;11.102;2022-09-02T00:46:21;3.40;;;2.10;;
13660;SDS011;6903;49.480;11.102;2022-09-02T00:51:35;2.47;;;2.10;;
13660;SDS011;6903;49.480;11.102;2022-09-02T00:54:04;3.90;;;2.00;;
13660;SDS011;6903;49.480;11.102;2022-09-02T00:56:31;2.23;;;1.93;;
13660;SDS011;6903;49.480;11.102;2022-09-02T00:58:58;2.70;;;1.80;;
13660;SDS011;6903;49.480;11.102;2022-09-02T01:01:24;3.63;;;2.57;;
13660;SDS011;6903;49.480;11.102;2022-09-02T01:03:51;3.53;;;2.30;;
13660;SDS011;6903;49.480;11.102;2022-09-02T01:06:18;4.67;;;2.40;;
13660;SDS011;6903;49.480;11.102;2022-09-02T01:08:46;4.53;;;2.33;;
13660;SDS011;6903;49.480;11.102;2022-09-02T01:11:18;5.10;;;2.33;;
13660;SDS011;6903;49.480;11.102;2022-09-02T01:13:45;2.03;;;1.83;;
13660;SDS011;6903;49.480;11.102;2022-09-02T01:16:16;3.37;;;2.10;;
13660;SDS011;6903;49.480;11.102;2022-09-02T01:18:45;4.10;;;2.17;;
13660;SDS011;6903;49.480;11.102;2022-09-02T01:21:13;2.40;;;2.10;;
13660;SDS011;6903;49.480;11.102;2022-09-02T01:23:39;4.17;;;2.30;;
13660;SDS011;6903;49.480;11.102;2022-09-02T01:26:04;2.97;;;2.23;;
13660;SDS011;6903;49.480;11.102;2022-09-02T01:28:32;2.67;;;2.37;;
13660;SDS011;6903;49.480;11.102;2022-09-02T01:30:58;3.73;;;2.13;;
13660;SDS011;6903;49.480;11.102;2022-09-02T01:33:24;3.20;;;1.97;;
13660;SDS011;6903;49.480;11.102;2022-09-02T01:35:49;2.37;;;2.03;;
13660;SDS011;6903;49.480;11.102;2022-09-02T01:38:15;2.57;;;2.13;;
13660;SDS011;6903;49.480;11.102;2022-09-02T01:40:41;3.60;;;2.07;;
13660;SDS011;6903;49.480;11.102;2022-09-02T01:43:08;3.67;;;2.40;;
13660;SDS011;6903;49.480;11.102;2022-09-02T01:45:37;3.10;;;2.13;;
13660;SDS011;6903;49.480;11.102;2022-09-02T01:48:05;4.17;;;2.60;;
13660;SDS011;6903;49.480;11.102;2022-09-02T01:50:31;3.43;;;2.30;;
13660;SDS011;6903;49.480;11.102;2022-09-02T01:52:58;2.80;;;2.13;;
13660;SDS011;6903;49.480;11.102;2022-09-02T01:55:27;2.83;;;2.00;;
13660;SDS011;6903;49.480;11.102;2022-09-02T01:57:53;4.40;;;2.30;;
13660;SDS011;6903;49.480;11.102;2022-09-02T02:00:18;3.17;;;2.33;;
13660;SDS011;6903;49.480;11.102;2022-09-02T02:02:44;2.30;;;2.10;;
13660;SDS011;6903;49.480;11.102;2022-09-02T02:05:09;2.40;;;2.10;;
13660;SDS011;6903;49.480;11.102;2022-09-02T02:07:35;3.43;;;2.23;;
13660;SDS011;6903;49.480;11.102;2022-09-02T02:10:02;2.27;;;2.00;;
13660;SDS011;6903;49.480;11.102;2022-09-02T02:12:29;3.10;;;2.23;;
13660;SDS011;6903;49.480;11.102;2022-09-02T02:14:54;2.47;;;2.00;;
13660;SDS011;6903;49.480;11.102;2022-09-02T02:17:20;2.60;;;2.00;;
13660;SDS011;6903;49.480;11.102;2022-09-02T02:19:45;3.00;;;2.17;;
13660;SDS011;6903;49.480;11.102;2022-09-02T02:22:10;2.20;;;2.00;;
13660;SDS011;6903;49.480;11.102;2022-09-02T02:24:38;2.83;;;2.10;;
13660;SDS011;6903;49.480;11.102;2022-09-02T02:27:03;2.53;;;2.33;;
13660;SDS011;6903;49.480;11.102;2022-09-02T02:29:29;2.77;;;2.00;;
13660;SDS011;6903;49.480;11.102;2022-09-02T02:31:54;2.83;;;2.00;;
13660;SDS011;6903;49.480;11.102;2022-09-02T02:34:19;2.57;;;2.00;;
13660;SDS011;6903;49.480;11.102;2022-09-02T02:36:45;2.27;;;2.00;;
13660;SDS011;6903;49.480;11.102;2022-09-02T02:39:10;2.87;;;2.10;;
13660;SDS011;6903;49.480;11.102;2022-09-02T02:41:36;2.40;;;1.80;;
13660;SDS011;6903;49.480;11.102;2022-09-02T02:44:03;3.13;;;1.93;;
13660;SDS011;6903;49.480;11.102;2022-09-02T02:46:29;3.10;;;2.03;;
13660;SDS011;6903;49.480;11.102;2022-09-02T02:48:55;3.63;;;2.13;;
13660;SDS011;6903;49.480;11.102;2022-09-02T02:51:23;2.20;;;2.00;;
13660;SDS011;6903;49.480;11.102;2022-09-02T02:53:48;2.40;;;2.00;;
13660;SDS011;6903;49.480;11.102;2022-09-02T02:56:13;2.73;;;2.00;;
13660;SDS011;6903;49.480;11.102;2022-09-02T02:58:39;2.87;;;2.00;;
13660;SDS011;6903;49.480;11.102;2022-09-02T03:01:04;3.73;;;2.17;;
13660;SDS011;6903;49.480;11.102;2022-09-02T03:03:29;2.53;;;1.97;;
13660;SDS011;6903;49.480;11.102;2022-09-02T03:05:55;2.50;;;2.07;;
13660;SDS011;6903;49.480;11.102;2022-09-02T03:08:21;2.37;;;2.00;;
13660;SDS011;6903;49.480;11.102;2022-09-02T03:10:47;2.53;;;1.90;;
13660;SDS011;6903;49.480;11.102;2022-09-02T03:13:15;2.53;;;1.87;;
13660;SDS011;6903;49.480;11.102;2022-09-02T03:15:41;2.10;;;1.90;;
13660;SDS011;6903;49.480;11.102;2022-09-02T03:18:07;3.73;;;1.90;;
13660;SDS011;6903;49.480;11.102;2022-09-02T03:20:33;2.60;;;2.20;;
13660;SDS011;6903;49.480;11.102;2022-09-02T03:22:59;2.23;;;1.90;;
13660;SDS011;6903;49.480;11.102;2022-09-02T03:25:26;4.07;;;2.23;;
13660;SDS011;6903;49.480;11.102;2022-09-02T03:27:52;2.57;;;2.07;;
13660;SDS011;6903;49.480;11.102;2022-09-02T03:30:20;2.50;;;2.10;;
13660;SDS011;6903;49.480;11.102;2022-09-02T03:32:48;2.63;;;2.10;;
13660;SDS011;6903;49.480;11.102;2022-09-02T03:35:15;3.03;;;2.20;;
13660;SDS011;6903;49.480;11.102;2022-09-02T03:37:43;2.47;;;2.00;;
13660;SDS011;6903;49.480;11.102;2022-09-02T03:40:11;4.50;;;2.37;;
13660;SDS011;6903;49.480;11.102;2022-09-02T03:42:38;2.47;;;2.17;;
13660;SDS011;6903;49.480;11.102;2022-09-02T03:45:04;2.70;;;1.80;;
13660;SDS011;6903;49.480;11.102;2022-09-02T03:47:33;3.37;;;2.13;;
13660;SDS011;6903;49.480;11.102;2022-09-02T03:49:59;3.60;;;2.30;;
13660;SDS011;6903;49.480;11.102;2022-09-02T03:52:24;2.30;;;1.93;;
13660;SDS011;6903;49.480;11.102;2022-09-02T03:54:50;2.43;;;2.10;;
13660;SDS011;6903;49.480;11.102;2022-09-02T03:57:16;2.27;;;2.07;;
13660;SDS011;6903;49.480;11.102;2022-09-02T03:59:42;2.30;;;2.07;;
13660;SDS011;6903;49.480;11.102;2022-09-02T04:02:07;2.20;;;2.00;;
13660;SDS011;6903;49.480;11.102;2022-09-02T04:04:33;5.13;;;2.30;;
13660;SDS011;6903;49.480;11.102;2022-09-02T04:06:59;2.27;;;2.03;;
13660;SDS011;6903;49.480;11.102;2022-09-02T04:09:24;2.30;;;2.10;;
13660;SDS011;6903;49.480;11.102;2022-09-02T04:11:50;2.80;;;2.50;;
13660;SDS011;6903;49.480;11.102;2022-09-02T04:14:16;3.10;;;1.93;;
13660;SDS011;6903;49.480;11.102;2022-09-02T04:16:41;3.00;;;2.10;;
13660;SDS011;6903;49.480;11.102;2022-09-02T04:19:06;2.30;;;2.10;;
13660;SDS011;6903;49.480;11.102;2022-09-02T04:21:34;4.10;;;2.50;;
13660;SDS011;6903;49.480;11.102;2022-09-02T04:24:01;4.03;;;2.30;;
13660;SDS011;6903;49.480;11.102;2022-09-02T04:26:27;3.00;;;2.43;;
13660;SDS011;6903;49.480;11.102;2022-09-02T04:28:52;2.30;;;2.10;;
13660;SDS011;6903;49.480;11.102;2022-09-02T04:31:20;3.40;;;2.63;;
13660;SDS011;6903;49.480;11.102;2022-09-02T04:33:49;2.97;;;2.10;;
13660;SDS011;6903;49.480;11.102;2022-09-02T04:36:15;2.53;;;2.27;;
13660;SDS011;6903;49.480;11.102;2022-09-02T04:38:42;3.90;;;2.40;;
13660;SDS011;6903;49.480;11.102;2022-09-02T04:41:09;5.13;;;2.70;;
13660;SDS011;6903;49.480;11.102;2022-09-02T04:43:47;2.87;;;2.30;;
13660;SDS011;6903;49.480;11.102;2022-09-02T04:46:15;4.43;;;2.30;;
13660;SDS011;6903;49.480;11.102;2022-09-02T04:48:41;3.53;;;2.23;;
13660;SDS011;6903;49.480;11.102;2022-09-02T04:51:09;3.27;;;2.40;;
13660;SDS011;6903;49.480;11.102;2022-09-02T04:53:37;3.43;;;2.33;;
13660;SDS011;6903;49.480;11.102;2022-09-02T04:56:03;4.70;;;2.43;;
13660;SDS011;6903;49.480;11.102;2022-09-02T04:58:30;3.60;;;2.37;;
13660;SDS011;6903;49.480;11.102;2022-09-02T05:00:55;3.30;;;2.40;;
13660;SDS011;6903;49.480;11.102;2022-09-02T05:03:20;2.47;;;2.27;;
13660;SDS011;6903;49.480;11.102;2022-09-02T05:05:47;2.57;;;2.13;;
13660;SDS011;6903;49.480;11.102;2022-09-02T05:08:22;2.93;;;2.23;;
13660;SDS011;6903;49.480;11.102;2022-09-02T05:10:47;3.03;;;2.17;;
13660;SDS011;6903;49.480;11.102;2022-09-02T05:13:14;3.00;;;2.23;;
13660;SDS011;6903;49.480;11.102;2022-09-02T05:15:39;2.77;;;1.80;;
13660;SDS011;6903;49.480;11.102;2022-09-02T05:18:05;2.93;;;1.93;;
13660;SDS011;6903;49.480;11.102;2022-09-02T05:20:31;2.70;;;2.10;;
13660;SDS011;6903;49.480;11.102;2022-09-02T05:22:56;2.37;;;2.03;;
13660;SDS011;6903;49.480;11.102;2022-09-02T05:25:22;2.60;;;2.00;;
13660;SDS011;6903;49.480;11.102;2022-09-02T05:27:47;3.33;;;1.67;;
13660;SDS011;6903;49.480;11.102;2022-09-02T05:30:12;3.40;;;1.90;;
13660;SDS011;6903;49.480;11.102;2022-09-02T05:32:38;1.90;;;1.70;;
13660;SDS011;6903;49.480;11.102;2022-09-02T05:35:03;2.23;;;1.70;;
13660;SDS011;6903;49.480;11.102;2022-09-02T05:37:29;2.87;;;1.60;;
13660;SDS011;6903;49.480;11.102;2022-09-02T05:39:54;3.67;;;1.70;;
13660;SDS011;6903;49.480;11.102;2022-09-02T05:42:20;2.93;;;1.90;;
13660;SDS011;6903;49.480;11.102;2022-09-02T05:44:45;2.22;;;1.80;;
13660;SDS011;6903;49.480;11.102;2022-09-02T05:47:11;1.75;;;1.60;;
13660;SDS011;6903;49.480;11.102;2022-09-02T05:49:37;2.63;;;1.88;;
13660;SDS011;6903;49.480;11.102;2022-09-02T05:52:02;2.22;;;1.70;;
13660;SDS011;6903;49.480;11.102;2022-09-02T05:54:33;4.55;;;1.70;;
13660;SDS011;6903;49.480;11.102;2022-09-02T05:57:04;5.28;;;2.05;;
13660;SDS011;6903;49.480;11.102;2022-09-02T05:59:35;4.50;;;2.08;;
13660;SDS011;6903;49.480;11.102;2022-09-02T06:02:06;1.88;;;1.58;;
13660;SDS011;6903;49.480;11.102;2022-09-02T06:04:35;2.95;;;1.65;;
13660;SDS011;6903;49.480;11.102;2022-09-02T06:07:02;1.83;;;1.60;;
13660;SDS011;6903;49.480;11.102;2022-09-02T06:09:27;3.47;;;1.73;;
13660;SDS011;6903;49.480;11.102;2022-09-02T06:11:52;3.15;;;1.60;;
13660;SDS011;6903;49.480;11.102;2022-09-02T06:14:19;4.20;;;2.05;;
13660;SDS011;6903;49.480;11.102;2022-09-02T06:16:49;2.25;;;1.70;;
13660;SDS011;6903;49.480;11.102;2022-09-02T06:19:15;2.38;;;1.67;;
13660;SDS011;6903;49.480;11.102;2022-09-02T06:21:41;2.63;;;1.90;;
13660;SDS011;6903;49.480;11.102;2022-09-02T06:24:07;2.13;;;1.55;;
13660;SDS011;6903;49.480;11.102;2022-09-02T06:26:35;1.95;;;1.55;;
13660;SDS011;6903;49.480;11.102;2022-09-02T06:29:02;2.28;;;1.60;;
13660;SDS011;6903;49.480;11.102;2022-09-02T06:31:28;2.70;;;1.92;;
13660;SDS011;6903;49.480;11.102;2022-09-02T06:33:55;2.42;;;1.70;;
13660;SDS011;6903;49.480;11.102;2022-09-02T06:36:22;1.77;;;1.60;;
13660;SDS011;6903;49.480;11.102;2022-09-02T06:38:49;1.60;;;1.50;;
13660;SDS011;6903;49.480;11.102;2022-09-02T06:41:20;2.15;;;1.70;;
13660;SDS011;6903;49.480;11.102;2022-09-02T06:43:50;2.42;;;1.60;;
13660;SDS011;6903;49.480;11.102;2022-09-02T06:46:17;1.85;;;1.63;;
13660;SDS011;6903;49.480;11.102;2022-09-02T06:48:45;2.05;;;1.40;;
13660;SDS011;6903;49.480;11.102;2022-09-02T06:51:17;2.13;;;1.67;;
13660;SDS011;6903;49.480;11.102;2022-09-02T06:53:45;4.35;;;1.77;;
13660;SDS011;6903;49.480;11.102;2022-09-02T06:56:10;2.88;;;2.00;;
13660;SDS011;6903;49.480;11.102;2022-09-02T06:58:36;2.70;;;1.83;;
13660;SDS011;6903;49.480;11.102;2022-09-02T07:01:01;1.70;;;1.60;;
13660;SDS011;6903;49.480;11.102;2022-09-02T07:03:26;3.88;;;1.50;;
13660;SDS011;6903;49.480;11.102;2022-09-02T07:06:10;3.08;;;1.80;;
13660;SDS011;6903;49.480;11.102;2022-09-02T07:08:37;2.78;;;1.67;;
13660;SDS011;6903;49.480;11.102;2022-09-02T07:11:04;1.50;;;1.40;;
13660;SDS011;6903;49.480;11.102;2022-09-02T07:13:32;3.58;;;1.70;;
13660;SDS011;6903;49.480;11.102;2022-09-02T07:15:58;1.60;;;1.40;;
13660;SDS011;6903;49.480;11.102;2022-09-02T07:18:24;1.70;;;1.52;;
13660;SDS011;6903;49.480;11.102;2022-09-02T07:20:49;2.38;;;1.50;;
13660;SDS011;6903;49.480;11.102;2022-09-02T07:23:15;2.70;;;1.65;;
13660;SDS011;6903;49.480;11.102;2022-09-02T07:25:41;3.35;;;1.45;;
13660;SDS011;6903;49.480;11.102;2022-09-02T07:28:07;2.13;;;1.50;;
13660;SDS011;6903;49.480;11.102;2022-09-02T07:30:33;3.45;;;1.50;;
13660;SDS011;6903;49.480;11.102;2022-09-02T07:32:59;3.08;;;1.50;;
13660;SDS011;6903;49.480;11.102;2022-09-02T07:35:25;4.10;;;1.90;;
13660;SDS011;6903;49.480;11.102;2022-09-02T07:37:51;3.72;;;1.52;;
13660;SDS011;6903;49.480;11.102;2022-09-02T07:40:16;1.80;;;1.50;;
13660;SDS011;6903;49.480;11.102;2022-09-02T07:42:42;2.38;;;1.40;;
13660;SDS011;6903;49.480;11.102;2022-09-02T07:45:08;2.28;;;1.60;;
13660;SDS011;6903;49.480;11.102;2022-09-02T07:47:34;2.63;;;1.60;;
13660;SDS011;6903;49.480;11.102;2022-09-02T07:50:00;5.78;;;1.95;;
13660;SDS011;6903;49.480;11.102;2022-09-02T07:52:25;3.38;;;1.40;;
13660;SDS011;6903;49.480;11.102;2022-09-02T07:54:51;3.95;;;1.70;;
13660;SDS011;6903;49.480;11.102;2022-09-02T07:57:16;4.20;;;1.58;;
13660;SDS011;6903;49.480;11.102;2022-09-02T07:59:41;3.53;;;1.25;;
13660;SDS011;6903;49.480;11.102;2022-09-02T08:02:07;3.08;;;1.40;;
13660;SDS011;6903;49.480;11.102;2022-09-02T08:04:34;2.35;;;1.30;;
13660;SDS011;6903;49.480;11.102;2022-09-02T08:06:59;2.50;;;1.80;;
13660;SDS011;6903;49.480;11.102;2022-09-02T08:09:24;4.38;;;1.80;;
13660;SDS011;6903;49.480;11.102;2022-09-02T08:11:50;3.10;;;1.40;;
13660;SDS011;6903;49.480;11.102;2022-09-02T08:14:20;2.97;;;1.40;;
13660;SDS011;6903;49.480;11.102;2022-09-02T08:16:50;1.80;;;1.40;;
13660;SDS011;6903;49.480;11.102;2022-09-02T08:19:16;3.40;;;1.23;;
13660;SDS011;6903;49.480;11.102;2022-09-02T08:21:41;3.53;;;1.38;;
13660;SDS011;6903;49.480;11.102;2022-09-02T08:24:07;2.05;;;1.42;;
13660;SDS011;6903;49.480;11.102;2022-09-02T08:26:32;2.85;;;1.58;;
13660;SDS011;6903;49.480;11.102;2022-09-02T08:29:01;2.75;;;1.42;;
13660;SDS011;6903;49.480;11.102;2022-09-02T08:31:28;2.85;;;1.48;;
13660;SDS011;6903;49.480;11.102;2022-09-02T08:33:53;2.55;;;1.42;;
13660;SDS011;6903;49.480;11.102;2022-09-02T08:36:18;1.73;;;1.50;;
13660;SDS011;6903;49.480;11.102;2022-09-02T08:38:45;2.47;;;1.50;;
13660;SDS011;6903;49.480;11.102;2022-09-02T08:44:02;2.83;;;1.40;;
13660;SDS011;6903;49.480;11.102;2022-09-02T08:46:29;3.60;;;1.50;;
13660;SDS011;6903;49.480;11.102;2022-09-02T08:48:58;2.45;;;1.48;;
13660;SDS011;6903;49.480;11.102;2022-09-02T08:51:29;2.40;;;1.50;;
13660;SDS011;6903;49.480;11.102;2022-09-02T08:54:01;2.95;;;1.48;;
13660;SDS011;6903;49.480;11.102;2022-09-02T08:56:29;2.75;;;1.52;;
13660;SDS011;6903;49.480;11.102;2022-09-02T08:58:56;2.13;;;1.50;;
13660;SDS011;6903;49.480;11.102;2022-09-02T09:01:24;2.13;;;1.38;;
13660;SDS011;6903;49.480;11.102;2022-09-02T09:04:16;4.10;;;1.42;;
13660;SDS011;6903;49.480;11.102;2022-09-02T09:06:49;2.38;;;1.50;;
13660;SDS011;6903;49.480;11.102;2022-09-02T09:12:19;4.75;;;1.58;;
13660;SDS011;6903;49.480;11.102;2022-09-02T09:14:55;2.97;;;1.40;;
13660;SDS011;6903;49.480;11.102;2022-09-02T09:17:36;1.58;;;1.20;;
13660;SDS011;6903;49.480;11.102;2022-09-02T09:20:22;2.05;;;1.30;;
13660;SDS011;6903;49.480;11.102;2022-09-02T09:22:51;2.03;;;1.40;;
13660;SDS011;6903;49.480;11.102;2022-09-02T09:25:21;2.72;;;1.45;;
13660;SDS011;6903;49.480;11.102;2022-09-02T09:27:52;2.88;;;1.48;;
13660;SDS011;6903;49.480;11.102;2022-09-02T09:30:17;1.67;;;1.30;;
13660;SDS011;6903;49.480;11.102;2022-09-02T09:32:44;1.48;;;1.17;;
13660;SDS011;6903;49.480;11.102;2022-09-02T09:35:15;2.90;;;1.33;;
13660;SDS011;6903;49.480;11.102;2022-09-02T09:37:42;3.30;;;1.48;;
13660;SDS011;6903;49.480;11.102;2022-09-02T09:45:33;2.70;;;1.40;;
13660;SDS011;6903;49.480;11.102;2022-09-02T09:51:26;4.28;;;1.50;;
13660;SDS011;6903;49.480;11.102;2022-09-02T09:53:27;2.47;;;1.30;;
13660;SDS011;6903;49.480;11.102;2022-09-02T09:55:55;1.48;;;1.15;;
13660;SDS011;6903;49.480;11.102;2022-09-02T10:08:58;2.38;;;1.10;;
13660;SDS011;6903;49.480;11.102;2022-09-02T10:11:27;1.27;;;1.15;;
13660;SDS011;6903;49.480;11.102;2022-09-02T10:13:57;1.95;;;1.20;;
13660;SDS011;6903;49.480;11.102;2022-09-02T10:24:41;1.65;;;1.33;;
13660;SDS011;6903;49.480;11.102;2022-09-02T10:27:15;1.58;;;1.25;;
13660;SDS011;6903;49.480;11.102;2022-09-02T10:30:06;2.33;;;1.20;;
13660;SDS011;6903;49.480;11.102;2022-09-02T10:32:39;3.75;;;1.40;;
13660;SDS011;6903;49.480;11.102;2022-09-02T10:40:38;2.75;;;1.20;;
13660;SDS011;6903;49.480;11.102;2022-09-02T10:46:08;2.22;;;1.30;;
13660;SDS011;6903;49.480;11.102;2022-09-02T10:48:49;2.88;;;1.30;;
13660;SDS011;6903;49.480;11.102;2022-09-02T10:51:32;2.75;;;1.13;;
13660;SDS011;6903;49.480;11.102;2022-09-02T10:57:06;1.50;;;1.10;;
13660;SDS011;6903;49.480;11.102;2022-09-02T10:59:40;2.72;;;1.30;;
13660;SDS011;6903;49.480;11.102;2022-09-02T11:02:12;1.20;;;1.10;;
13660;SDS011;6903;49.480;11.102;2022-09-02T11:07:22;1.50;;;1.10;;
13660;SDS011;6903;49.480;11.102;2022-09-02T11:10:02;4.35;;;1.35;;
13660;SDS011;6903;49.480;11.102;2022-09-02T11:12:53;2.25;;;1.10;;
13660;SDS011;6903;49.480;11.102;2022-09-02T11:20:53;1.35;;;1.20;;
13660;SDS011;6903;49.480;11.102;2022-09-02T11:23:36;3.60;;;1.13;;
13660;SDS011;6903;49.480;11.102;2022-09-02T11:26:14;1.55;;;1.20;;
13660;SDS011;6903;49.480;11.102;2022-09-02T11:31:19;1.45;;;1.00;;
13660;SDS011;6903;49.480;11.102;2022-09-02T11:33:57;1.10;;;1.00;;
13660;SDS011;6903;49.480;11.102;2022-09-02T11:36:27;2.75;;;1.13;;
13660;SDS011;6903;49.480;11.102;2022-09-02T11:38:56;2.20;;;1.02;;
13660;SDS011;6903;49.480;11.102;2022-09-02T11:41:29;1.65;;;1.17;;
13660;SDS011;6903;49.480;11.102;2022-09-02T11:47:29;1.15;;;1.00;;
13660;SDS011;6903;49.480;11.102;2022-09-02T11:50:02;2.35;;;1.10;;
13660;SDS011;6903;49.480;11.102;2022-09-02T11:52:55;2.30;;;1.00;;
13660;SDS011;6903;49.480;11.102;2022-09-02T11:55:37;1.27;;;1.02;;
13660;SDS011;6903;49.480;11.102;2022-09-02T11:58:06;1.92;;;1.17;;
13660;SDS011;6903;49.480;11.102;2022-09-02T12:00:33;2.67;;;1.02;;
13660;SDS011;6903;49.480;11.102;2022-09-02T12:07:57;1.92;;;1.10;;
13660;SDS011;6903;49.480;11.102;2022-09-02T12:15:37;2.47;;;1.27;;
13660;SDS011;6903;49.480;11.102;2022-09-02T12:18:05;1.27;;;1.13;;
13660;SDS011;6903;49.480;11.102;2022-09-02T12:23:08;1.38;;;0.98;;
13660;SDS011;6903;49.480;11.102;2022-09-02T12:26:03;1.50;;;1.08;;
13660;SDS011;6903;49.480;11.102;2022-09-02T12:28:30;1.42;;;1.00;;
13660;SDS011;6903;49.480;11.102;2022-09-02T12:33:32;1.63;;;1.20;;
13660;SDS011;6903;49.480;11.102;2022-09-02T12:36:00;1.23;;;0.90;;
13660;SDS011;6903;49.480;11.102;2022-09-02T12:41:10;1.63;;;1.00;;
13660;SDS011;6903;49.480;11.102;2022-09-02T12:43:45;1.77;;;0.90;;
13660;SDS011;6903;49.480;11.102;2022-09-02T12:48:42;1.63;;;0.95;;
13660;SDS011;6903;49.480;11.102;2022-09-02T12:51:49;1.52;;;1.10;;
13660;SDS011;6903;49.480;11.102;2022-09-02T12:54:15;1.10;;;1.00;;
13660;SDS011;6903;49.480;11.102;2022-09-02T12:56:46;3.13;;;0.90;;
13660;SDS011;6903;49.480;11.102;2022-09-02T12:59:18;2.45;;;0.93;;
13660;SDS011;6903;49.480;11.102;2022-09-02T13:02:04;1.17;;;0.85;;
13660;SDS011;6903;49.480;11.102;2022-09-02T13:04:42;1.50;;;0.93;;
13660;SDS011;6903;49.480;11.102;2022-09-02T13:07:31;1.25;;;1.00;;
13660;SDS011;6903;49.480;11.102;2022-09-02T13:10:25;1.13;;;1.02;;
13660;SDS011;6903;49.480;11.102;2022-09-02T13:18:48;2.25;;;0.90;;
13660;SDS011;6903;49.480;11.102;2022-09-02T13:24:42;1.08;;;0.98;;
13660;SDS011;6903;49.480;11.102;2022-09-02T13:27:32;2.42;;;1.02;;
13660;SDS011;6903;49.480;11.102;2022-09-02T13:33:06;2.58;;;1.10;;
13660;SDS011;6903;49.480;11.102;2022-09-02T13:35:37;2.08;;;1.33;;
13660;SDS011;6903;49.480;11.102;2022-09-02T13:38:04;1.85;;;1.00;;
13660;SDS011;6903;49.480;11.102;2022-09-02T13:40:34;1.10;;;1.00;;
13660;SDS011;6903;49.480;11.102;2022-09-02T13:43:01;1.75;;;1.13;;
13660;SDS011;6903;49.480;11.102;2022-09-02T13:45:29;4.40;;;0.85;;
13660;SDS011;6903;49.480;11.102;2022-09-02T13:47:59;1.80;;;1.13;;
13660;SDS011;6903;49.480;11.102;2022-09-02T13:50:27;1.95;;;1.00;;
13660;SDS011;6903;49.480;11.102;2022-09-02T13:52:57;1.60;;;1.00;;
13660;SDS011;6903;49.480;11.102;2022-09-02T13:55:25;1.00;;;0.90;;
13660;SDS011;6903;49.480;11.102;2022-09-02T13:57:59;2.00;;;0.98;;
13660;SDS011;6903;49.480;11.102;2022-09-02T14:00:30;1.50;;;0.98;;
13660;SDS011;6903;49.480;11.102;2022-09-02T14:03:12;1.35;;;1.20;;
13660;SDS011;6903;49.480;11.102;2022-09-02T14:05:42;2.22;;;0.90;;
13660;SDS011;6903;49.480;11.102;2022-09-02T14:08:14;3.00;;;0.90;;
13660;SDS011;6903;49.480;11.102;2022-09-02T14:10:42;1.33;;;1.00;;
13660;SDS011;6903;49.480;11.102;2022-09-02T14:13:09;1.02;;;0.93;;
13660;SDS011;6903;49.480;11.102;2022-09-02T14:15:37;2.35;;;1.13;;
13660;SDS011;6903;49.480;11.102;2022-09-02T14:20:39;2.05;;;1.10;;
13660;SDS011;6903;49.480;11.102;2022-09-02T14:23:18;1.27;;;1.00;;
13660;SDS011;6903;49.480;11.102;2022-09-02T14:25:57;2.92;;;1.08;;
13660;SDS011;6903;49.480;11.102;2022-09-02T14:28:25;1.10;;;0.93;;
13660;SDS011;6903;49.480;11.102;2022-09-02T14:30:57;1.70;;;0.90;;
13660;SDS011;6903;49.480;11.102;2022-09-02T14:36:00;1.08;;;0.98;;
13660;SDS011;6903;49.480;11.102;2022-09-02T14:38:28;1.40;;;1.10;;
13660;SDS011;6903;49.480;11.102;2022-09-02T14:40:59;1.73;;;1.00;;
13660;SDS011;6903;49.480;11.102;2022-09-02T14:43:39;1.98;;;1.10;;
13660;SDS011;6903;49.480;11.102;2022-09-02T14:46:07;2.20;;;1.13;;
13660;SDS011;6903;49.480;11.102;2022-09-02T14:48:40;2.47;;;1.02;;
13660;SDS011;6903;49.480;11.102;2022-09-02T14:51:06;1.75;;;0.90;;
13660;SDS011;6903;49.480;11.102;2022-09-02T14:53:33;2.10;;;1.25;;
13660;SDS011;6903;49.480;11.102;2022-09-02T14:56:01;1.67;;;0.90;;
13660;SDS011;6903;49.480;11.102;2022-09-02T14:58:28;3.20;;;1.00;;
13660;SDS011;6903;49.480;11.102;2022-09-02T15:00:54;2.00;;;1.08;;
13660;SDS011;6903;49.480;11.102;2022-09-02T15:03:22;1.48;;;1.10;;
13660;SDS011;6903;49.480;11.102;2022-09-02T15:05:48;1.30;;;1.00;;
13660;SDS011;6903;49.480;11.102;2022-09-02T15:08:13;1.75;;;0.90;;
13660;SDS011;6903;49.480;11.102;2022-09-02T15:10:39;2.30;;;1.17;;
13660;SDS011;6903;49.480;11.102;2022-09-02T15:13:06;1.38;;;0.90;;
13660;SDS011;6903;49.480;11.102;2022-09-02T15:15:36;1.08;;;0.98;;
13660;SDS011;6903;49.480;11.102;2022-09-02T15:18:02;1.95;;;1.10;;
13660;SDS011;6903;49.480;11.102;2022-09-02T15:20:28;2.22;;;1.17;;
13660;SDS011;6903;49.480;11.102;2022-09-02T15:22:54;1.20;;;0.90;;
13660;SDS011;6903;49.480;11.102;2022-09-02T15:25:20;2.22;;;1.00;;
13660;SDS011;6903;49.480;11.102;2022-09-02T15:27:45;1.73;;;1.00;;
13660;SDS011;6903;49.480;11.102;2022-09-02T15:30:10;1.10;;;1.00;;
13660;SDS011;6903;49.480;11.102;2022-09-02T15:32:36;1.63;;;0.90;;
13660;SDS011;6903;49.480;11.102;2022-09-02T15:35:02;1.20;;;1.10;;
13660;SDS011;6903;49.480;11.102;2022-09-02T15:37:48;2.95;;;0.90;;
13660;SDS011;6903;49.480;11.102;2022-09-02T16:17:39;1.17;;;1.05;;
13660;SDS011;6903;49.480;11.102;2022-09-02T16:20:06;3.13;;;1.20;;
13660;SDS011;6903;49.480;11.102;2022-09-02T16:22:31;1.83;;;1.25;;
13660;SDS011;6903;49.480;11.102;2022-09-02T16:24:57;1.85;;;1.27;;
13660;SDS011;6903;49.480;11.102;2022-09-02T16:27:22;2.95;;;1.30;;
13660;SDS011;6903;49.480;11.102;2022-09-02T16:30:07;1.50;;;1.08;;
13660;SDS011;6903;49.480;11.102;2022-09-02T16:32:33;2.35;;;1.20;;
13660;SDS011;6903;49.480;11.102;2022-09-02T16:34:58;1.77;;;1.15;;
13660;SDS011;6903;49.480;11.102;2022-09-02T16:37:24;2.42;;;1.00;;
13660;SDS011;6903;49.480;11.102;2022-09-02T16:39:49;3.30;;;1.25;;
13660;SDS011;6903;49.480;11.102;2022-09-02T16:42:15;1.20;;;1.10;;
13660;SDS011;6903;49.480;11.102;2022-09-02T16:44:40;2.22;;;1.20;;
13660;SDS011;6903;49.480;11.102;2022-09-02T16:47:05;2.13;;;1.20;;
13660;SDS011;6903;49.480;11.102;2022-09-02T16:49:31;1.45;;;1.10;;
13660;SDS011;6903;49.480;11.102;2022-09-02T16:51:58;1.35;;;1.00;;
13660;SDS011;6903;49.480;11.102;2022-09-02T16:54:24;1.48;;;1.08;;
13660;SDS011;6903;49.480;11.102;2022-09-02T16:56:50;1.73;;;1.10;;
13660;SDS011;6903;49.480;11.102;2022-09-02T16:59:15;1.83;;;1.02;;
13660;SDS011;6903;49.480;11.102;2022-09-02T17:01:43;1.92;;;1.20;;
13660;SDS011;6903;49.480;11.102;2022-09-02T17:04:08;1.08;;;1.00;;
13660;SDS011;6903;49.480;11.102;2022-09-02T17:06:33;1.10;;;1.00;;
13660;SDS011;6903;49.480;11.102;2022-09-02T17:08:59;1.30;;;1.20;;
13660;SDS011;6903;49.480;11.102;2022-09-02T17:11:28;1.13;;;0.98;;
13660;SDS011;6903;49.480;11.102;2022-09-02T17:14:03;1.30;;;1.20;;